Time;durP1;ratioP1;P1;durP2;ratioP2;P2;SDS_P1;SDS_P2;PMS_P1;PMS_P2;Temp;Humidity;BMP_temperature;BMP_pressure;BME280_temperature;BME280_humidity;BME280_pressure;Samples;Min_cycle;Max_cycle;Signal;HPM_P1;HPM_P2
2022/09/19 00:01:14;;;;;;;671.58;445.50;;;13.10;99.90;;;;;;4970898;28;20242;-75
2022/09/19 00:03:43;;;;;;;667.17;434.70;;;13.10;99.90;;;;;;4977175;28;20260;-74
2022/09/19 00:06:11;;;;;;;667.47;434.30;;;13.10;99.90;;;;;;4972911;28;20611;-75
2022/09/19 00:08:38;;;;;;;671.40;441.98;;;13.10;99.90;;;;;;4968206;28;20190;-75
2022/09/19 00:11:06;;;;;;;668.05;438.05;;;13.10;99.90;;;;;;4978317;28;20292;-75
2022/09/19 00:13:36;;;;;;;674.88;443.38;;;13.10;99.90;;;;;;4972642;28;20543;-75
2022/09/19 00:16:03;;;;;;;670.35;442.25;;;13.10;99.90;;;;;;4966624;28;20225;-76
2022/09/19 00:18:29;;;;;;;669.15;436.52;;;13.10;99.90;;;;;;4976872;28;20668;-74
2022/09/19 00:20:56;;;;;;;670.03;444.58;;;13.10;99.90;;;;;;4971005;28;20649;-75
2022/09/19 00:26:09;;;;;;;667.50;441.17;;;13.10;99.90;;;;;;4967261;28;20209;-74
2022/09/19 00:28:38;;;;;;;671.92;443.90;;;13.10;99.90;;;;;;4964833;28;20200;-73
2022/09/19 00:31:05;;;;;;;662.55;414.30;;;13.00;99.90;;;;;;4966829;28;20284;-75
2022/09/19 00:33:34;;;;;;;667.67;441.30;;;13.00;99.90;;;;;;4970371;28;20201;-74
2022/09/19 00:36:03;;;;;;;671.00;442.83;;;13.00;99.90;;;;;;4975978;28;20762;-74
2022/09/19 00:38:31;;;;;;;675.00;447.55;;;13.00;99.90;;;;;;4972557;28;20201;-74
2022/09/19 00:40:58;;;;;;;674.75;451.20;;;13.00;99.90;;;;;;4959299;28;20210;-73
2022/09/19 00:43:45;;;;;;;670.53;432.02;;;13.00;99.90;;;;;;4980616;28;20190;-75
2022/09/19 00:46:12;;;;;;;669.15;429.77;;;13.00;99.90;;;;;;4960288;28;20201;-75
2022/09/19 00:48:41;;;;;;;675.60;443.40;;;13.00;99.90;;;;;;4985415;28;20560;-75
2022/09/19 00:51:11;;;;;;;679.40;444.30;;;13.00;99.90;;;;;;4964849;28;20198;-75
2022/09/19 00:53:38;;;;;;;674.25;441.55;;;13.00;99.90;;;;;;4974421;28;20216;-74
2022/09/19 00:56:06;;;;;;;676.80;444.20;;;13.00;99.90;;;;;;4965548;28;20212;-74
2022/09/19 00:58:35;;;;;;;672.85;416.58;;;13.00;99.90;;;;;;4964626;28;20195;-74
2022/09/19 01:01:03;;;;;;;677.78;430.75;;;13.00;99.90;;;;;;4967470;28;20248;-73
2022/09/19 01:03:31;;;;;;;677.20;434.27;;;13.00;99.90;;;;;;4987576;28;20197;-73
2022/09/19 01:06:10;;;;;;;680.22;445.00;;;13.00;99.90;;;;;;4979694;28;20193;-73
2022/09/19 01:08:56;;;;;;;673.40;431.33;;;13.00;99.90;;;;;;4963017;28;20217;-75
2022/09/19 01:11:45;;;;;;;680.65;438.52;;;12.90;99.90;;;;;;4969539;28;20206;-73
2022/09/19 01:14:26;;;;;;;672.67;418.23;;;12.90;99.90;;;;;;4964545;28;20194;-74
2022/09/19 01:17:01;;;;;;;677.17;432.13;;;12.90;99.90;;;;;;4966208;28;20233;-73
2022/09/19 01:19:49;;;;;;;676.10;443.27;;;12.90;99.90;;;;;;4976503;28;20569;-73
2022/09/19 01:22:27;;;;;;;673.55;431.15;;;12.90;99.90;;;;;;4963504;28;20574;-73
2022/09/19 01:24:59;;;;;;;675.78;432.20;;;12.90;99.90;;;;;;4975325;28;20542;-73
2022/09/19 01:27:49;;;;;;;680.88;440.10;;;12.90;99.90;;;;;;4971202;28;20229;-74
2022/09/19 01:30:17;;;;;;;682.42;434.58;;;12.90;99.90;;;;;;4974990;28;20604;-74
2022/09/19 01:32:51;;;;;;;678.55;427.58;;;12.90;99.90;;;;;;4965138;28;20217;-73
2022/09/19 01:35:23;;;;;;;679.13;423.52;;;12.90;99.90;;;;;;4976257;28;20194;-73
2022/09/19 01:37:53;;;;;;;683.65;433.83;;;12.90;99.90;;;;;;4973195;28;20230;-73
2022/09/19 01:40:22;;;;;;;683.65;431.63;;;12.90;99.90;;;;;;4973119;28;20681;-74
2022/09/19 01:42:55;;;;;;;680.08;438.33;;;12.90;99.90;;;;;;4969895;28;20205;-73
2022/09/19 01:45:24;;;;;;;680.92;440.15;;;12.90;99.90;;;;;;4966256;28;20662;-74
2022/09/19 01:48:07;;;;;;;685.42;434.20;;;12.90;99.90;;;;;;4981107;28;20216;-73
2022/09/19 01:50:47;;;;;;;682.47;428.17;;;12.80;99.90;;;;;;4984591;28;20562;-74
2022/09/19 01:53:28;;;;;;;675.53;426.00;;;12.80;99.90;;;;;;4963254;28;20637;-75
2022/09/19 01:56:03;;;;;;;673.25;422.55;;;12.80;99.90;;;;;;4962370;28;20194;-75
2022/09/19 01:58:40;;;;;;;675.10;419.00;;;12.80;99.90;;;;;;4982526;28;20224;-74
2022/09/19 02:01:12;;;;;;;680.42;432.98;;;12.80;99.90;;;;;;4984805;28;20231;-73
2022/09/19 02:03:48;;;;;;;672.13;419.73;;;12.80;99.90;;;;;;4976585;28;20247;-74
2022/09/19 02:06:22;;;;;;;669.72;414.27;;;12.80;99.90;;;;;;4971689;28;20197;-74
2022/09/19 02:08:55;;;;;;;673.78;428.30;;;12.80;99.90;;;;;;4981957;28;20201;-74
2022/09/19 02:11:22;;;;;;;669.67;417.95;;;12.80;99.90;;;;;;4975253;28;20695;-74
2022/09/19 02:13:54;;;;;;;669.72;415.42;;;12.80;99.90;;;;;;4980975;28;20210;-74
2022/09/19 02:16:30;;;;;;;672.17;428.30;;;12.80;99.90;;;;;;4978280;28;20226;-74
2022/09/19 02:19:00;;;;;;;672.55;424.77;;;12.80;99.90;;;;;;4980039;28;20277;-74
2022/09/19 02:21:36;;;;;;;671.90;427.75;;;12.80;99.90;;;;;;4968907;28;20206;-75
2022/09/19 02:24:06;;;;;;;660.58;407.10;;;12.80;99.90;;;;;;4979449;28;20195;-74
2022/09/19 02:26:35;;;;;;;659.75;420.25;;;12.80;99.90;;;;;;4980063;28;20583;-74
2022/09/19 02:29:04;;;;;;;661.10;421.42;;;12.80;99.90;;;;;;4973988;28;20194;-74
2022/09/19 02:31:32;;;;;;;660.80;429.17;;;12.80;99.90;;;;;;4973274;28;20194;-74
2022/09/19 02:34:02;;;;;;;656.50;415.00;;;12.80;99.90;;;;;;4971764;28;20191;-74
2022/09/19 02:36:35;;;;;;;664.17;434.67;;;12.80;99.90;;;;;;4967708;28;20201;-73
2022/09/19 02:39:08;;;;;;;653.78;400.35;;;12.80;99.90;;;;;;4972765;28;20202;-74
2022/09/19 02:41:42;;;;;;;664.63;420.80;;;12.80;99.90;;;;;;4974530;28;20281;-73
2022/09/19 02:44:19;;;;;;;667.05;424.23;;;12.70;99.90;;;;;;4973103;28;20201;-74
2022/09/19 02:46:55;;;;;;;661.55;416.48;;;12.70;99.90;;;;;;4980368;28;20209;-73
2022/09/19 02:49:30;;;;;;;664.58;416.23;;;12.70;99.90;;;;;;4969359;28;20193;-73
2022/09/19 02:52:02;;;;;;;667.17;426.27;;;12.70;99.90;;;;;;4969435;28;20328;-73
2022/09/19 02:54:34;;;;;;;667.58;411.15;;;12.70;99.90;;;;;;4967426;28;20340;-74
2022/09/19 02:57:09;;;;;;;673.78;425.08;;;12.70;99.90;;;;;;4972585;28;20221;-74
2022/09/19 02:59:40;;;;;;;665.92;420.35;;;12.70;99.90;;;;;;4982967;28;20204;-73
2022/09/19 03:02:12;;;;;;;672.25;426.25;;;12.70;99.90;;;;;;4972481;28;20579;-73
2022/09/19 03:04:42;;;;;;;669.63;418.65;;;12.70;99.90;;;;;;4982986;28;20629;-74
2022/09/19 03:07:13;;;;;;;671.95;427.95;;;12.70;99.90;;;;;;4976628;28;20202;-74
2022/09/19 03:09:45;;;;;;;665.85;422.08;;;12.70;99.90;;;;;;4970631;28;20194;-73
2022/09/19 03:12:18;;;;;;;662.38;418.45;;;12.70;99.90;;;;;;4972396;28;20245;-73
2022/09/19 03:14:45;;;;;;;663.60;422.15;;;12.70;99.90;;;;;;4967497;28;20195;-73
2022/09/19 03:17:16;;;;;;;664.33;428.27;;;12.70;99.90;;;;;;4977611;28;20320;-73
2022/09/19 03:19:46;;;;;;;668.33;435.65;;;12.70;99.90;;;;;;4972217;28;20527;-73
2022/09/19 03:22:13;;;;;;;659.90;421.92;;;12.70;99.90;;;;;;4965077;28;20203;-73
2022/09/19 03:24:40;;;;;;;665.03;426.65;;;12.70;99.90;;;;;;4968403;28;20217;-74
2022/09/19 03:27:08;;;;;;;665.78;422.73;;;12.70;99.90;;;;;;4969744;28;20687;-73
2022/09/19 03:29:35;;;;;;;665.97;429.92;;;12.70;99.90;;;;;;4974486;28;20201;-73
2022/09/19 03:32:02;;;;;;;662.97;422.15;;;12.70;99.90;;;;;;4972279;28;20190;-74
2022/09/19 03:34:32;;;;;;;670.45;434.75;;;12.70;99.90;;;;;;4972746;28;20193;-73
2022/09/19 03:36:59;;;;;;;665.13;424.23;;;12.70;99.90;;;;;;4967017;28;20225;-73
2022/09/19 03:39:26;;;;;;;664.42;424.75;;;12.70;99.90;;;;;;4967518;28;20190;-73
2022/09/19 03:41:54;;;;;;;664.88;420.02;;;12.60;99.90;;;;;;4970449;28;20206;-73
2022/09/19 03:44:20;;;;;;;662.05;405.90;;;12.60;99.90;;;;;;4978006;28;20606;-73
2022/09/19 03:46:48;;;;;;;672.55;436.98;;;12.60;99.90;;;;;;4968104;28;20202;-73
2022/09/19 03:49:16;;;;;;;668.90;427.92;;;12.60;99.90;;;;;;4981249;28;20209;-75
2022/09/19 03:51:46;;;;;;;672.72;432.65;;;12.60;99.90;;;;;;4969508;28;20285;-74
2022/09/19 03:54:13;;;;;;;669.10;420.15;;;12.60;99.90;;;;;;4965186;28;20197;-74
2022/09/19 03:56:39;;;;;;;675.40;432.25;;;12.60;99.90;;;;;;4977977;28;20198;-74
2022/09/19 03:59:06;;;;;;;674.42;427.23;;;12.60;99.90;;;;;;4984453;28;20218;-74
2022/09/19 04:01:33;;;;;;;678.67;435.50;;;12.60;99.90;;;;;;4962400;28;20197;-73
2022/09/19 04:03:59;;;;;;;679.30;424.65;;;12.60;99.90;;;;;;4981806;28;20196;-73
2022/09/19 04:06:26;;;;;;;676.65;414.00;;;12.60;99.90;;;;;;4975992;28;20226;-74
2022/09/19 04:08:54;;;;;;;681.50;428.77;;;12.60;99.90;;;;;;4962833;28;20671;-74
2022/09/19 04:11:21;;;;;;;685.67;432.55;;;12.60;99.90;;;;;;4968990;28;20561;-74
2022/09/19 04:13:48;;;;;;;679.45;431.13;;;12.60;99.90;;;;;;4978595;28;20196;-73
2022/09/19 04:16:17;;;;;;;679.95;425.00;;;12.60;99.90;;;;;;4974368;28;20228;-73
2022/09/19 04:18:47;;;;;;;684.80;431.58;;;12.60;99.90;;;;;;4974733;28;20225;-72
2022/09/19 04:21:15;;;;;;;689.03;438.17;;;12.60;99.90;;;;;;4966119;28;20572;-72
2022/09/19 04:23:41;;;;;;;685.03;432.42;;;12.60;99.90;;;;;;4969691;28;20284;-72
2022/09/19 04:26:09;;;;;;;688.53;430.13;;;12.60;99.90;;;;;;4970886;28;20193;-74
2022/09/19 04:28:38;;;;;;;690.65;438.17;;;12.60;99.90;;;;;;4975168;28;20197;-73
2022/09/19 04:31:08;;;;;;;683.83;429.42;;;12.60;99.90;;;;;;4963667;28;20197;-73
2022/09/19 04:33:35;;;;;;;678.60;419.25;;;12.60;99.90;;;;;;4984012;28;20197;-73
2022/09/19 04:36:02;;;;;;;676.33;426.98;;;12.60;99.90;;;;;;4968145;28;20201;-73
2022/09/19 04:38:30;;;;;;;679.60;430.73;;;12.60;99.90;;;;;;4966492;28;20221;-73
2022/09/19 04:40:57;;;;;;;681.72;430.67;;;12.60;99.90;;;;;;4962818;28;20206;-73
2022/09/19 04:43:27;;;;;;;684.95;426.35;;;12.60;99.90;;;;;;4963250;28;20289;-73
2022/09/19 04:45:54;;;;;;;693.80;435.00;;;12.60;99.90;;;;;;4982110;28;20284;-74
2022/09/19 04:48:21;;;;;;;691.72;419.05;;;12.60;99.90;;;;;;4979936;28;20201;-73
2022/09/19 04:50:50;;;;;;;695.25;428.85;;;12.60;99.90;;;;;;4968145;28;20264;-73
2022/09/19 04:53:18;;;;;;;699.83;452.30;;;12.60;99.90;;;;;;4964877;28;20223;-72
2022/09/19 04:55:48;;;;;;;691.10;429.85;;;12.60;99.90;;;;;;4967772;28;20240;-73
2022/09/19 04:58:16;;;;;;;686.47;425.25;;;12.60;99.90;;;;;;4971339;28;20221;-73
2022/09/19 05:00:45;;;;;;;685.30;430.70;;;12.60;99.90;;;;;;4971757;28;20277;-73
2022/09/19 05:03:14;;;;;;;684.42;424.88;;;12.60;99.90;;;;;;4979315;28;20212;-73
2022/09/19 05:05:44;;;;;;;689.38;436.08;;;12.60;99.90;;;;;;4981603;28;20194;-73
2022/09/19 05:08:14;;;;;;;693.03;427.85;;;12.60;99.90;;;;;;4963799;28;20209;-73
2022/09/19 05:10:42;;;;;;;695.45;430.52;;;12.60;99.90;;;;;;4960681;28;20605;-73
2022/09/19 05:13:10;;;;;;;695.17;434.10;;;12.60;99.90;;;;;;4966154;28;20740;-73
2022/09/19 05:15:41;;;;;;;699.05;433.67;;;12.60;99.90;;;;;;4963192;28;20206;-74
2022/09/19 05:18:10;;;;;;;692.65;403.98;;;12.60;99.90;;;;;;4969927;28;20324;-72
2022/09/19 05:20:38;;;;;;;695.97;417.77;;;12.60;99.90;;;;;;4985884;28;20189;-75
2022/09/19 05:23:05;;;;;;;693.75;421.67;;;12.60;99.90;;;;;;4963030;28;20256;-75
2022/09/19 05:25:37;;;;;;;696.67;433.10;;;12.60;99.90;;;;;;4964175;28;20293;-76
2022/09/19 05:28:05;;;;;;;696.28;426.23;;;12.60;99.90;;;;;;4968122;28;20198;-75
2022/09/19 05:30:33;;;;;;;695.38;419.92;;;12.60;99.90;;;;;;4972046;28;20198;-75
2022/09/19 05:33:02;;;;;;;683.45;425.23;;;12.60;99.90;;;;;;4979461;28;20209;-75
2022/09/19 05:35:30;;;;;;;683.28;424.50;;;12.60;99.90;;;;;;4983639;28;20193;-75
2022/09/19 05:37:57;;;;;;;682.58;426.58;;;12.60;99.90;;;;;;4966103;28;20300;-76
2022/09/19 05:40:24;;;;;;;680.47;423.60;;;12.60;99.90;;;;;;4968492;28;20297;-75
2022/09/19 05:42:52;;;;;;;680.50;421.20;;;12.60;99.90;;;;;;4972144;28;20197;-75
2022/09/19 05:45:20;;;;;;;687.17;436.25;;;12.60;99.90;;;;;;4981604;28;20206;-76
2022/09/19 05:47:49;;;;;;;680.47;419.40;;;12.60;99.90;;;;;;4985168;28;20205;-75
2022/09/19 05:50:16;;;;;;;679.60;416.85;;;12.60;99.90;;;;;;4987783;28;20656;-76
2022/09/19 05:55:29;;;;;;;681.65;411.88;;;12.60;99.90;;;;;;4982347;28;20204;-75
2022/09/19 05:57:58;;;;;;;682.13;424.33;;;12.60;99.90;;;;;;4973065;28;20687;-75
2022/09/19 06:00:27;;;;;;;688.78;433.95;;;12.60;99.90;;;;;;4975612;28;20194;-76
2022/09/19 06:02:55;;;;;;;675.80;400.67;;;12.60;99.90;;;;;;4981159;28;20677;-75
2022/09/19 06:05:22;;;;;;;683.83;425.40;;;12.60;99.90;;;;;;4988193;28;20197;-74
2022/09/19 06:07:51;;;;;;;679.40;424.40;;;12.70;99.90;;;;;;4967709;28;20261;-74
2022/09/19 06:10:18;;;;;;;689.08;428.00;;;12.70;99.90;;;;;;4968652;28;20212;-74
2022/09/19 06:12:45;;;;;;;689.72;433.80;;;12.80;99.90;;;;;;4968540;28;20649;-76
2022/09/19 06:15:12;;;;;;;702.10;456.73;;;12.90;99.90;;;;;;4977263;28;20599;-75
2022/09/19 06:17:39;;;;;;;701.25;452.27;;;13.00;99.90;;;;;;4970510;28;20236;-75
2022/09/19 06:20:07;;;;;;;705.17;465.70;;;13.10;99.90;;;;;;4976625;28;20201;-75
2022/09/19 06:22:33;;;;;;;703.45;461.52;;;13.30;99.90;;;;;;4965992;28;20206;-75
2022/09/19 06:25:01;;;;;;;701.92;456.38;;;13.40;99.90;;;;;;4974463;28;20194;-74
2022/09/19 06:27:28;;;;;;;676.83;454.63;;;13.40;99.90;;;;;;4969061;28;20584;-74
2022/09/19 06:29:55;;;;;;;680.63;460.65;;;13.40;99.90;;;;;;4992009;28;20305;-74
2022/09/19 06:32:22;;;;;;;674.92;456.42;;;13.30;99.90;;;;;;4971658;28;20197;-75
2022/09/19 06:34:49;;;;;;;674.30;451.75;;;13.30;99.90;;;;;;4972546;28;20193;-74
2022/09/19 06:37:16;;;;;;;670.05;449.23;;;13.20;99.90;;;;;;4966037;28;20206;-74
2022/09/19 06:39:43;;;;;;;669.95;451.52;;;13.20;99.90;;;;;;4973535;28;20353;-74
2022/09/19 06:42:11;;;;;;;666.00;437.10;;;13.10;99.90;;;;;;4984067;28;20198;-74
2022/09/19 06:44:37;;;;;;;668.60;444.48;;;13.10;99.90;;;;;;4971191;28;20193;-76
2022/09/19 06:47:05;;;;;;;667.92;440.17;;;13.10;99.90;;;;;;4969095;28;20197;-75
2022/09/19 06:49:32;;;;;;;670.10;435.75;;;13.10;99.90;;;;;;4983054;28;20205;-75
2022/09/19 06:51:58;;;;;;;661.85;419.13;;;13.10;99.90;;;;;;4973423;28;20198;-75
2022/09/19 06:54:26;;;;;;;670.55;437.00;;;13.10;99.90;;;;;;4967425;28;20202;-75
2022/09/19 06:56:52;;;;;;;665.67;436.27;;;13.10;99.90;;;;;;4973971;28;20197;-75
2022/09/19 06:59:21;;;;;;;667.85;437.48;;;13.20;99.90;;;;;;4977215;28;20303;-76
2022/09/19 07:01:49;;;;;;;671.38;446.65;;;13.20;99.90;;;;;;4976977;28;20197;-76
2022/09/19 07:04:16;;;;;;;667.25;430.80;;;13.20;99.90;;;;;;4983593;28;20204;-74
2022/09/19 07:06:43;;;;;;;667.13;435.98;;;13.20;99.90;;;;;;4975471;28;20203;-75
2022/09/19 07:09:09;;;;;;;676.05;451.00;;;13.20;99.90;;;;;;4971797;28;20252;-77
2022/09/19 07:11:37;;;;;;;677.75;451.80;;;13.20;99.90;;;;;;4975440;28;20608;-77
2022/09/19 07:14:04;;;;;;;676.50;455.10;;;13.20;99.90;;;;;;4971372;28;20285;-74
2022/09/19 07:16:32;;;;;;;677.00;447.73;;;13.20;99.90;;;;;;4974564;28;20249;-74
2022/09/19 07:18:59;;;;;;;675.60;446.17;;;13.20;99.90;;;;;;4976374;28;20212;-77
2022/09/19 07:21:26;;;;;;;681.65;450.98;;;13.20;99.90;;;;;;4975036;28;20194;-76
2022/09/19 07:23:54;;;;;;;677.47;449.20;;;13.20;99.90;;;;;;4969471;28;20289;-77
2022/09/19 07:26:21;;;;;;;675.28;443.67;;;13.20;99.90;;;;;;4971955;28;20726;-76
2022/09/19 07:28:48;;;;;;;676.80;449.92;;;13.20;99.90;;;;;;4965320;28;20198;-75
2022/09/19 07:31:14;;;;;;;675.03;441.52;;;13.30;99.90;;;;;;4975533;28;20668;-77
2022/09/19 07:33:42;;;;;;;676.53;445.83;;;13.40;99.90;;;;;;4975080;28;20193;-76
2022/09/19 07:36:10;;;;;;;683.15;449.10;;;13.40;99.90;;;;;;4986329;28;20652;-77
2022/09/19 07:38:36;;;;;;;676.70;448.10;;;13.50;99.90;;;;;;4971200;28;20245;-80
2022/09/19 07:41:04;;;;;;;681.58;464.98;;;13.50;99.90;;;;;;4968982;28;20197;-78
2022/09/19 07:43:30;;;;;;;678.67;451.33;;;13.50;99.90;;;;;;4977502;28;20260;-79
2022/09/19 07:45:57;;;;;;;684.35;478.67;;;13.70;99.90;;;;;;4972372;28;20288;-75
2022/09/19 07:48:24;;;;;;;683.90;474.60;;;13.70;99.90;;;;;;4965738;28;20538;-75
2022/09/19 07:50:52;;;;;;;685.03;479.65;;;13.80;99.90;;;;;;4970748;28;20205;-75
2022/09/19 07:53:22;;;;;;;684.55;469.58;;;13.80;99.90;;;;;;4964729;28;20198;-76
2022/09/19 07:55:51;;;;;;;683.50;475.83;;;13.80;99.90;;;;;;4977055;28;20221;-78
2022/09/19 07:58:20;;;;;;;684.33;476.52;;;13.80;99.90;;;;;;4970191;28;20193;-77
2022/09/19 08:00:48;;;;;;;688.38;480.45;;;13.70;99.90;;;;;;4968990;28;20226;-77
2022/09/19 08:03:16;;;;;;;678.58;466.27;;;13.70;99.90;;;;;;4976095;28;20302;-76
2022/09/19 08:05:45;;;;;;;687.38;482.73;;;13.70;99.90;;;;;;4984156;28;20247;-76
2022/09/19 08:08:15;;;;;;;683.28;469.10;;;13.70;99.90;;;;;;4967577;28;20209;-76
2022/09/19 08:10:43;;;;;;;682.00;467.55;;;13.70;99.90;;;;;;4975923;28;20208;-76
2022/09/19 08:13:11;;;;;;;672.88;441.08;;;13.70;99.90;;;;;;4969901;28;20204;-77
2022/09/19 08:15:39;;;;;;;674.33;444.67;;;13.70;99.90;;;;;;4975510;28;20657;-77
2022/09/19 08:18:08;;;;;;;685.20;475.10;;;13.70;99.90;;;;;;4980914;28;20206;-76
2022/09/19 08:20:36;;;;;;;683.38;473.60;;;13.70;99.90;;;;;;4957975;28;20233;-76
2022/09/19 08:23:05;;;;;;;688.30;488.83;;;13.80;99.90;;;;;;4979874;28;20189;-76
2022/09/19 08:25:37;;;;;;;682.70;476.45;;;13.90;99.90;;;;;;4981250;28;20210;-79
2022/09/19 08:28:04;;;;;;;685.65;486.23;;;14.00;99.90;;;;;;4976741;28;20288;-76
2022/09/19 08:30:33;;;;;;;689.58;502.27;;;14.20;99.90;;;;;;4984052;28;20209;-76
2022/09/19 08:33:02;;;;;;;691.55;511.88;;;14.30;99.90;;;;;;4970406;28;20676;-75
2022/09/19 08:35:30;;;;;;;692.85;517.88;;;14.50;99.90;;;;;;4972886;28;20205;-75
2022/09/19 08:37:59;;;;;;;696.00;525.35;;;14.60;99.90;;;;;;4968250;28;20210;-75
2022/09/19 08:40:28;;;;;;;700.53;548.30;;;14.70;99.90;;;;;;4973074;28;20604;-76
2022/09/19 08:43:09;;;;;;;694.53;536.53;;;14.90;99.90;;;;;;4985058;28;20198;-77
2022/09/19 08:45:48;;;;;;;695.75;548.65;;;15.00;99.90;;;;;;4978579;28;20197;-76
2022/09/19 08:48:21;;;;;;;699.25;558.45;;;15.00;99.90;;;;;;4976651;28;20210;-76
2022/09/19 08:50:56;;;;;;;700.75;561.53;;;15.10;99.90;;;;;;4975069;28;20245;-78
2022/09/19 08:53:29;;;;;;;702.70;561.90;;;15.10;99.90;;;;;;4964866;28;20201;-77
2022/09/19 08:56:00;;;;;;;701.38;558.05;;;15.00;99.90;;;;;;4971210;28;20199;-77
2022/09/19 08:58:32;;;;;;;698.58;556.40;;;15.00;99.90;;;;;;4972551;28;20294;-77
2022/09/19 09:01:01;;;;;;;705.47;561.03;;;15.00;99.90;;;;;;4963015;28;20292;-77
2022/09/19 09:03:36;;;;;;;702.05;550.75;;;14.90;99.90;;;;;;4974810;28;20207;-76
2022/09/19 09:06:15;;;;;;;701.78;550.13;;;14.80;99.90;;;;;;4972836;28;20198;-77
2022/09/19 09:08:53;;;;;;;699.78;543.75;;;14.80;99.90;;;;;;4967510;28;20554;-79
2022/09/19 09:11:33;;;;;;;701.60;543.60;;;14.80;99.90;;;;;;4979237;28;20201;-78
2022/09/19 09:14:08;;;;;;;699.13;549.28;;;14.80;99.90;;;;;;4975921;28;20568;-77
2022/09/19 09:16:47;;;;;;;702.22;542.75;;;14.80;99.90;;;;;;4976673;28;20218;-77
2022/09/19 09:19:33;;;;;;;696.33;523.97;;;14.80;99.90;;;;;;4973536;28;20225;-77
2022/09/19 09:22:07;;;;;;;704.58;547.00;;;14.80;99.90;;;;;;4973755;28;20201;-76
2022/09/19 09:24:39;;;;;;;710.75;555.67;;;14.90;99.90;;;;;;4975415;28;20198;-77
2022/09/19 09:27:14;;;;;;;718.10;567.95;;;14.90;99.90;;;;;;4966536;28;20325;-77
2022/09/19 09:29:46;;;;;;;716.67;555.90;;;15.00;99.90;;;;;;4967654;28;20201;-79
2022/09/19 09:32:17;;;;;;;716.70;548.45;;;15.00;99.90;;;;;;4973775;28;20205;-79
2022/09/19 09:34:50;;;;;;;721.22;561.03;;;15.00;99.90;;;;;;4984823;28;20567;-79
2022/09/19 09:37:20;;;;;;;715.47;557.30;;;15.00;99.90;;;;;;4967961;28;20202;-76
2022/09/19 09:39:59;;;;;;;710.50;547.58;;;15.00;99.90;;;;;;4976044;28;20214;-77
2022/09/19 09:42:32;;;;;;;700.60;539.90;;;14.90;99.90;;;;;;4976193;28;20657;-76
2022/09/19 09:45:06;;;;;;;697.47;531.72;;;14.90;99.90;;;;;;4987652;28;20202;-76
2022/09/19 09:47:43;;;;;;;701.80;543.50;;;14.80;99.90;;;;;;4970627;28;20241;-77
2022/09/19 09:50:28;;;;;;;693.55;527.13;;;14.80;99.90;;;;;;4977575;28;20272;-79
2022/09/19 09:53:01;;;;;;;690.22;528.80;;;14.80;99.90;;;;;;4972877;28;20568;-77
2022/09/19 09:58:29;;;;;;;685.03;509.90;;;14.70;99.90;;;;;;4971162;28;20242;-75
2022/09/19 10:04:06;;;;;;;690.88;518.95;;;14.70;99.90;;;;;;4980386;28;20579;-76
2022/09/19 10:06:38;;;;;;;692.15;512.20;;;14.70;99.90;;;;;;4973931;28;20208;-76
2022/09/19 10:09:11;;;;;;;703.92;539.63;;;14.80;99.90;;;;;;4972816;28;20206;-79
2022/09/19 10:11:42;;;;;;;712.10;568.08;;;15.10;99.90;;;;;;4976655;28;20193;-77
2022/09/19 10:14:18;;;;;;;721.55;594.95;;;15.50;99.90;;;;;;4978376;28;20223;-76
2022/09/19 10:16:47;;;;;;;721.40;599.10;;;16.00;99.90;;;;;;4937441;28;1071932;-75
2022/09/19 10:19:25;;;;;;;726.38;615.97;;;16.10;99.90;;;;;;4970142;28;20236;-75
2022/09/19 10:21:52;;;;;;;725.60;608.92;;;15.90;99.90;;;;;;4969812;28;20204;-76
2022/09/19 10:24:42;;;;;;;1003.90;914.67;;;15.80;99.90;;;;;;4973410;28;20465;-81
2022/09/19 10:27:13;;;;;;;761.40;679.15;;;15.70;99.90;;;;;;4979346;28;20549;-77
2022/09/19 10:29:51;;;;;;;726.28;633.40;;;15.50;99.90;;;;;;4985758;28;20938;-78
2022/09/19 10:32:23;;;;;;;720.38;606.15;;;15.40;99.90;;;;;;4973378;28;20290;-79
2022/09/19 10:34:50;;;;;;;720.97;596.50;;;15.40;99.90;;;;;;4983802;28;20281;-79
2022/09/19 10:37:18;;;;;;;714.35;573.72;;;15.30;99.90;;;;;;4964269;28;20208;-79
2022/09/19 10:39:48;;;;;;;713.95;581.60;;;15.30;99.90;;;;;;4980778;28;20221;-77
2022/09/19 10:42:31;;;;;;;726.08;578.70;;;15.30;99.90;;;;;;4977818;28;20198;-77
2022/09/19 10:44:59;;;;;;;716.47;558.20;;;15.30;99.90;;;;;;4975052;28;20206;-83
2022/09/19 10:47:28;;;;;;;718.75;569.20;;;15.30;99.90;;;;;;4976075;28;20199;-80
2022/09/19 10:50:02;;;;;;;718.03;562.20;;;15.30;99.90;;;;;;4989167;28;20223;-82
2022/09/19 10:52:33;;;;;;;720.00;565.33;;;15.30;99.90;;;;;;4978453;28;20264;-82
2022/09/19 10:55:01;;;;;;;718.03;559.35;;;15.30;99.90;;;;;;4991016;28;20565;-79
2022/09/19 10:57:40;;;;;;;714.95;555.63;;;15.20;99.90;;;;;;4978361;28;20195;-82
2022/09/19 11:00:20;;;;;;;717.90;561.70;;;15.20;99.90;;;;;;4976776;28;20221;-77
2022/09/19 11:02:56;;;;;;;714.00;552.50;;;15.20;99.90;;;;;;4973223;28;20217;-78
2022/09/19 11:05:25;;;;;;;715.63;563.60;;;15.20;99.90;;;;;;4952816;28;20708;-81
2022/09/19 11:07:55;;;;;;;708.25;549.40;;;15.20;99.90;;;;;;4955256;28;20196;-79
2022/09/19 11:10:33;;;;;;;705.97;547.85;;;15.20;99.90;;;;;;4956773;28;20204;-80
2022/09/19 11:13:06;;;;;;;711.58;559.72;;;15.20;99.90;;;;;;4956704;28;20195;-77
2022/09/19 11:15:38;;;;;;;708.15;551.55;;;15.20;99.90;;;;;;4957059;28;20203;-78
2022/09/19 11:18:12;;;;;;;711.53;550.20;;;15.20;99.90;;;;;;4957421;28;20230;-79
2022/09/19 11:20:49;;;;;;;715.42;551.88;;;15.20;99.90;;;;;;4958597;28;20253;-81
2022/09/19 11:23:56;;;;;;;712.20;551.10;;;15.20;99.90;;;;;;4954058;28;20200;-77
2022/09/19 11:26:34;;;;;;;712.92;554.78;;;15.30;99.90;;;;;;4945721;28;20211;-80
2022/09/19 11:29:26;;;;;;;724.22;561.42;;;15.30;99.90;;;;;;4954142;28;20191;-77
2022/09/19 11:32:03;;;;;;;714.97;556.88;;;15.30;99.90;;;;;;4949581;28;20199;-79
2022/09/19 11:34:40;;;;;;;717.63;565.63;;;15.30;99.90;;;;;;4954246;28;20219;-78
2022/09/19 11:37:25;;;;;;;712.00;536.58;;;15.30;99.90;;;;;;4950935;28;20624;-77
2022/09/19 11:40:07;;;;;;;717.13;566.42;;;15.30;99.90;;;;;;4959048;28;20244;-83
2022/09/19 11:42:43;;;;;;;713.30;550.95;;;15.30;99.90;;;;;;4955204;28;20291;-76
2022/09/19 11:45:16;;;;;;;714.63;562.83;;;15.30;99.90;;;;;;4941725;29;20215;-79
2022/09/19 11:48:05;;;;;;;717.20;564.97;;;15.30;99.90;;;;;;4949861;28;20224;-76
2022/09/19 11:50:51;;;;;;;719.10;553.05;;;15.30;99.90;;;;;;4952803;28;20295;-80
2022/09/19 11:53:38;;;;;;;711.30;556.10;;;15.30;99.90;;;;;;4952543;28;20200;-76
2022/09/19 11:56:35;;;;;;;713.13;556.70;;;15.30;99.90;;;;;;4948057;28;20238;-76
2022/09/19 11:59:13;;;;;;;711.20;551.92;;;15.20;99.90;;;;;;4945656;29;20195;-79
2022/09/19 12:01:54;;;;;;;711.28;550.00;;;15.20;99.90;;;;;;4945987;28;20518;-77
2022/09/19 12:04:35;;;;;;;709.17;547.92;;;15.20;99.90;;;;;;4952082;28;20197;-76
2022/09/19 12:07:24;;;;;;;711.65;551.95;;;15.20;99.90;;;;;;4954910;28;20207;-77
2022/09/19 12:09:57;;;;;;;714.90;548.15;;;15.20;99.90;;;;;;4953223;28;20733;-77
2022/09/19 12:12:28;;;;;;;712.33;540.05;;;15.20;99.90;;;;;;4952041;28;20618;-76
2022/09/19 12:15:02;;;;;;;714.17;539.45;;;15.20;99.90;;;;;;4955151;28;20636;-77
2022/09/19 12:17:34;;;;;;;715.17;550.13;;;15.10;99.90;;;;;;4947249;28;20226;-79
2022/09/19 12:20:12;;;;;;;710.75;538.97;;;15.10;99.90;;;;;;4953322;29;20245;-77
2022/09/19 12:22:48;;;;;;;716.30;554.33;;;15.10;99.90;;;;;;4950347;28;20198;-76
2022/09/19 12:25:19;;;;;;;712.67;549.22;;;15.10;99.90;;;;;;4955579;28;20201;-76
2022/09/19 12:27:50;;;;;;;717.53;551.97;;;15.10;99.90;;;;;;4951590;28;20195;-77
2022/09/19 12:30:18;;;;;;;714.28;549.15;;;15.10;99.90;;;;;;4954367;28;20212;-81
2022/09/19 12:32:52;;;;;;;713.75;556.47;;;15.10;99.90;;;;;;4950573;28;20202;-77
2022/09/19 12:35:25;;;;;;;713.30;556.58;;;15.10;99.90;;;;;;4949689;29;20581;-77
2022/09/19 12:38:07;;;;;;;713.78;550.22;;;15.10;99.90;;;;;;4950487;28;20202;-77
2022/09/19 12:40:44;;;;;;;716.28;559.70;;;15.10;99.90;;;;;;4951034;28;20280;-78